Time;durP1;ratioP1;P1;durP2;ratioP2;P2;SDS_P1;SDS_P2;PMS_P1;PMS_P2;Temp;Humidity;BMP_temperature;BMP_pressure;BME280_temperature;BME280_humidity;BME280_pressure;Samples;Min_cycle;Max_cycle;Signal;HPM_P1;HPM_P2
2022/10/19 00:00:48;;;;;;;18.92;8.35;;;14.60;99.90;;;;;;5076815;28;20436;-54
2022/10/19 00:03:14;;;;;;;16.80;8.43;;;14.70;99.90;;;;;;5090241;28;20420;-54
2022/10/19 00:05:39;;;;;;;17.83;8.90;;;14.60;99.90;;;;;;5091012;28;20390;-54
2022/10/19 00:08:05;;;;;;;16.90;7.85;;;14.60;99.90;;;;;;5089607;28;20413;-54
2022/10/19 00:10:31;;;;;;;18.97;8.30;;;14.50;99.90;;;;;;5091259;28;20410;-54
2022/10/19 00:12:57;;;;;;;19.23;8.40;;;14.40;99.90;;;;;;5090848;28;20708;-55
2022/10/19 00:15:22;;;;;;;15.70;7.50;;;14.40;99.90;;;;;;5090468;28;20379;-54
2022/10/19 00:17:48;;;;;;;16.10;7.72;;;14.40;99.90;;;;;;5090995;28;20386;-54
2022/10/19 00:20:13;;;;;;;16.58;8.52;;;14.40;99.90;;;;;;5089883;28;20382;-54
2022/10/19 00:22:39;;;;;;;19.70;8.23;;;14.40;99.90;;;;;;5091233;28;20715;-54
2022/10/19 00:25:05;;;;;;;17.50;8.40;;;14.30;99.90;;;;;;5070476;28;20376;-54
2022/10/19 00:27:31;;;;;;;18.70;8.05;;;14.30;99.90;;;;;;5070424;28;20415;-54
2022/10/19 00:29:57;;;;;;;16.30;7.60;;;14.30;99.90;;;;;;5070240;28;20388;-55
2022/10/19 00:32:22;;;;;;;15.17;7.77;;;14.30;99.90;;;;;;5070436;28;20860;-54
2022/10/19 00:34:48;;;;;;;16.20;8.27;;;14.30;99.90;;;;;;5070893;28;20406;-54
2022/10/19 00:37:13;;;;;;;17.52;8.50;;;14.30;99.90;;;;;;5069784;28;20376;-54
2022/10/19 00:39:39;;;;;;;17.15;8.40;;;14.40;99.90;;;;;;5071011;28;20471;-54
2022/10/19 00:42:05;;;;;;;18.20;8.67;;;14.50;99.90;;;;;;5070345;28;20856;-54
2022/10/19 00:44:30;;;;;;;15.50;7.78;;;14.60;99.90;;;;;;5070447;28;20391;-54
2022/10/19 00:47:02;;;;;;;19.73;9.20;;;14.60;99.90;;;;;;5070011;28;20421;-55
2022/10/19 00:49:36;;;;;;;17.48;8.77;;;14.70;99.90;;;;;;5070672;28;20387;-54
2022/10/19 00:52:06;;;;;;;21.23;9.43;;;14.90;99.90;;;;;;5069442;28;20390;-54
2022/10/19 00:54:35;;;;;;;19.95;8.90;;;15.00;99.90;;;;;;5070390;28;20718;-55
2022/10/19 00:57:02;;;;;;;24.30;9.98;;;15.00;99.90;;;;;;5068763;28;20380;-54
2022/10/19 00:59:30;;;;;;;26.05;10.23;;;15.10;99.90;;;;;;5069980;28;20471;-54
2022/10/19 01:01:57;;;;;;;26.98;11.95;;;15.10;99.90;;;;;;5069722;28;20407;-55
2022/10/19 01:04:25;;;;;;;31.30;11.40;;;15.10;99.90;;;;;;5070697;28;20395;-54
2022/10/19 01:06:55;;;;;;;28.13;11.45;;;15.10;99.90;;;;;;5069937;28;20380;-54
2022/10/19 01:09:21;;;;;;;40.20;10.93;;;15.10;99.90;;;;;;5069915;28;20465;-54
2022/10/19 01:12:00;;;;;;;48.67;12.23;;;15.20;99.90;;;;;;5069946;28;20434;-54
2022/10/19 01:15:02;;;;;;;31.88;11.15;;;15.30;99.90;;;;;;5070215;28;20384;-54
2022/10/19 01:17:45;;;;;;;33.33;10.90;;;15.60;99.90;;;;;;5075942;28;20396;-54
2022/10/19 01:20:46;;;;;;;43.75;11.63;;;15.60;99.90;;;;;;5089565;28;20418;-54
2022/10/19 01:23:40;;;;;;;47.33;11.95;;;15.50;99.90;;;;;;5089426;28;20431;-54
2022/10/19 01:26:47;;;;;;;56.60;11.48;;;17.10;99.90;;;;;;5086911;28;20408;-54
2022/10/19 01:29:33;;;;;;;48.40;12.13;;;15.50;99.90;;;;;;5089342;28;20816;-54
2022/10/19 01:32:10;;;;;;;44.10;11.10;;;15.60;99.90;;;;;;5089221;28;20416;-55
2022/10/19 01:35:03;;;;;;;40.97;11.68;;;15.60;99.90;;;;;;5089511;28;20382;-54
2022/10/19 01:37:34;;;;;;;36.97;11.30;;;15.60;99.90;;;;;;5090468;28;20385;-54
2022/10/19 01:40:09;;;;;;;45.63;11.68;;;15.50;99.90;;;;;;5089984;28;20374;-55
2022/10/19 01:43:01;;;;;;;44.07;10.90;;;15.50;99.90;;;;;;5089808;28;20370;-54
2022/10/19 01:45:41;;;;;;;28.90;10.60;;;15.60;99.90;;;;;;5089651;28;20377;-54
2022/10/19 01:48:15;;;;;;;34.53;10.00;;;15.60;99.90;;;;;;5088942;28;20453;-54
2022/10/19 01:50:53;;;;;;;39.30;10.55;;;15.60;99.90;;;;;;5089518;28;20374;-54
2022/10/19 01:53:20;;;;;;;53.95;10.75;;;15.60;99.90;;;;;;5089513;28;20457;-54
2022/10/19 01:55:50;;;;;;;40.50;9.82;;;15.60;99.90;;;;;;5089912;28;20839;-55
2022/10/19 01:58:20;;;;;;;44.83;10.20;;;15.60;99.90;;;;;;5088578;28;20922;-54
2022/10/19 02:00:48;;;;;;;42.97;10.57;;;15.60;99.90;;;;;;5089324;28;20409;-54
2022/10/19 02:03:15;;;;;;;33.08;9.40;;;15.60;99.90;;;;;;5088845;28;20378;-54
2022/10/19 02:05:43;;;;;;;32.17;10.10;;;15.60;99.90;;;;;;5090046;28;20469;-54
2022/10/19 02:08:33;;;;;;;41.28;11.00;;;15.50;99.90;;;;;;5089966;28;20883;-55
2022/10/19 02:11:00;;;;;;;38.50;11.20;;;15.70;99.90;;;;;;5093186;28;20374;-55
2022/10/19 02:13:28;;;;;;;35.55;10.73;;;15.70;99.90;;;;;;5094150;28;20381;-54
2022/10/19 02:15:57;;;;;;;57.63;12.45;;;15.60;99.90;;;;;;5093598;28;20432;-54
2022/10/19 02:18:29;;;;;;;29.40;9.13;;;15.70;99.90;;;;;;5093286;28;20370;-54
2022/10/19 02:20:55;;;;;;;29.55;9.90;;;15.70;99.90;;;;;;5093211;28;20416;-54
2022/10/19 02:23:24;;;;;;;25.70;9.70;;;15.70;99.90;;;;;;5092970;28;20370;-54
2022/10/19 02:25:50;;;;;;;29.90;9.63;;;15.70;99.90;;;;;;5092727;28;20415;-54
2022/10/19 02:28:16;;;;;;;27.13;10.00;;;15.70;99.90;;;;;;5091485;28;20413;-57
2022/10/19 02:30:41;;;;;;;30.77;10.88;;;15.70;99.90;;;;;;5092956;28;20471;-57
2022/10/19 02:33:07;;;;;;;29.50;10.30;;;15.70;99.90;;;;;;5092159;28;20509;-57
2022/10/19 02:35:33;;;;;;;30.95;9.90;;;15.80;99.90;;;;;;5093252;28;20450;-57
2022/10/19 02:38:01;;;;;;;25.53;10.33;;;15.80;99.90;;;;;;5092791;28;20485;-55
2022/10/19 02:40:30;;;;;;;28.25;10.20;;;15.80;99.90;;;;;;5093118;28;20468;-54
2022/10/19 02:43:04;;;;;;;28.70;9.88;;;15.80;99.90;;;;;;5092686;28;20420;-55
2022/10/19 02:45:41;;;;;;;19.70;10.23;;;15.70;99.90;;;;;;5093494;28;20451;-54
2022/10/19 02:48:12;;;;;;;24.20;10.43;;;15.70;99.90;;;;;;5092122;28;20409;-54
2022/10/19 02:50:48;;;;;;;25.88;11.00;;;15.60;99.90;;;;;;5093056;28;20468;-54
2022/10/19 02:53:15;;;;;;;30.90;10.27;;;15.50;99.90;;;;;;5092230;28;20427;-54
2022/10/19 02:55:41;;;;;;;29.83;10.57;;;15.50;99.90;;;;;;5092667;28;20381;-54
2022/10/19 02:58:07;;;;;;;25.60;9.75;;;15.60;99.90;;;;;;5092270;28;20389;-54
2022/10/19 03:00:33;;;;;;;30.48;10.63;;;15.70;99.90;;;;;;5103675;28;20466;-54
2022/10/19 03:02:59;;;;;;;27.03;11.43;;;15.60;99.90;;;;;;5072493;28;20798;-54
2022/10/19 03:05:24;;;;;;;28.20;9.68;;;15.60;99.90;;;;;;5072121;28;20391;-54
2022/10/19 03:07:50;;;;;;;26.57;11.07;;;15.60;99.90;;;;;;5072522;28;20400;-54
2022/10/19 03:10:16;;;;;;;25.45;10.93;;;15.60;99.90;;;;;;5070863;28;21215;-54
2022/10/19 03:12:42;;;;;;;31.03;10.50;;;15.60;99.90;;;;;;5072307;28;20402;-54
2022/10/19 03:15:09;;;;;;;26.95;11.73;;;15.60;99.90;;;;;;5071288;28;20789;-54
2022/10/19 03:17:34;;;;;;;28.95;12.15;;;15.60;99.90;;;;;;5072021;28;20379;-54
2022/10/19 03:20:00;;;;;;;28.10;11.83;;;15.60;99.90;;;;;;5070778;28;20388;-55
2022/10/19 03:22:25;;;;;;;29.75;12.60;;;15.60;99.90;;;;;;5071924;28;20418;-56
2022/10/19 03:24:51;;;;;;;30.85;12.13;;;15.60;99.90;;;;;;5084870;28;20374;-54
2022/10/19 03:27:17;;;;;;;31.50;13.43;;;15.60;99.90;;;;;;5091501;28;20382;-54
2022/10/19 03:29:42;;;;;;;29.33;12.10;;;15.70;99.90;;;;;;5092033;28;20921;-54
2022/10/19 03:32:08;;;;;;;26.00;11.77;;;15.60;99.90;;;;;;5091198;28;20417;-54
2022/10/19 03:34:33;;;;;;;29.52;13.30;;;15.60;99.90;;;;;;5092255;28;20802;-54
2022/10/19 03:36:59;;;;;;;35.27;12.83;;;15.60;99.90;;;;;;5091389;28;20435;-55
2022/10/19 03:39:25;;;;;;;41.20;12.40;;;15.70;99.90;;;;;;5087203;28;20402;-54
2022/10/19 03:41:50;;;;;;;32.78;13.15;;;15.80;99.90;;;;;;5088983;28;20377;-54
2022/10/19 03:44:16;;;;;;;33.22;13.48;;;15.80;99.90;;;;;;5090440;28;20378;-54
2022/10/19 03:46:41;;;;;;;33.67;12.50;;;15.80;99.90;;;;;;5091004;28;20374;-54
2022/10/19 03:49:08;;;;;;;43.57;12.50;;;15.80;99.90;;;;;;5090384;28;20402;-58
2022/10/19 03:51:34;;;;;;;40.50;12.95;;;15.80;99.90;;;;;;5090843;28;20535;-54
2022/10/19 03:54:03;;;;;;;31.87;11.20;;;15.90;99.90;;;;;;5090610;28;20390;-55
2022/10/19 03:56:30;;;;;;;27.40;12.02;;;15.90;99.90;;;;;;5088348;28;20386;-54
2022/10/19 03:58:57;;;;;;;36.33;12.97;;;15.90;99.90;;;;;;5090947;28;20378;-54
2022/10/19 04:01:26;;;;;;;33.38;12.95;;;15.90;99.90;;;;;;5090417;28;20394;-54
2022/10/19 04:03:53;;;;;;;37.67;12.45;;;15.80;99.90;;;;;;5090422;28;20386;-54
2022/10/19 04:06:23;;;;;;;47.53;13.47;;;15.80;99.90;;;;;;5090541;28;20384;-54
2022/10/19 04:08:49;;;;;;;46.58;13.05;;;15.70;99.90;;;;;;5090861;28;20473;-54
2022/10/19 04:11:17;;;;;;;37.05;12.48;;;15.80;99.90;;;;;;5090328;28;20416;-54
2022/10/19 04:13:42;;;;;;;49.97;13.32;;;15.70;99.90;;;;;;5091013;28;20709;-54
2022/10/19 04:16:12;;;;;;;48.63;12.17;;;15.60;99.90;;;;;;5090030;28;20435;-54
2022/10/19 04:18:37;;;;;;;43.87;13.00;;;15.60;99.90;;;;;;5090935;28;20382;-54
2022/10/19 04:21:05;;;;;;;40.58;13.40;;;15.60;99.90;;;;;;5090131;28;20697;-55
2022/10/19 04:23:33;;;;;;;39.50;13.57;;;15.70;99.90;;;;;;5084870;28;20874;-54
2022/10/19 04:26:03;;;;;;;38.30;13.00;;;15.70;99.90;;;;;;5090568;28;20416;-55
2022/10/19 04:28:29;;;;;;;53.85;14.75;;;15.70;99.90;;;;;;5084476;28;20418;-54
2022/10/19 04:30:55;;;;;;;52.37;13.20;;;15.70;99.90;;;;;;5069509;28;20462;-54
2022/10/19 04:33:21;;;;;;;55.70;12.65;;;15.70;99.90;;;;;;5068967;28;20460;-54
2022/10/19 04:35:47;;;;;;;34.15;11.95;;;15.60;99.90;;;;;;5070359;28;20847;-54
2022/10/19 04:38:13;;;;;;;43.72;13.30;;;15.70;99.90;;;;;;5085127;28;20374;-56
2022/10/19 04:40:38;;;;;;;56.43;13.77;;;15.70;99.90;;;;;;5090383;28;20389;-57
2022/10/19 04:43:04;;;;;;;41.67;13.80;;;15.70;99.90;;;;;;5087998;28;20429;-55
2022/10/19 04:45:30;;;;;;;32.45;12.23;;;15.80;99.90;;;;;;5090247;28;20382;-55
2022/10/19 04:47:56;;;;;;;38.38;11.88;;;15.80;99.90;;;;;;5090024;28;20896;-54
2022/10/19 04:50:23;;;;;;;47.27;12.40;;;15.90;99.90;;;;;;5087060;28;20481;-54
2022/10/19 04:52:48;;;;;;;41.85;12.20;;;15.90;99.90;;;;;;5086026;28;20385;-54
2022/10/19 04:55:14;;;;;;;39.27;12.50;;;15.90;99.90;;;;;;5089528;28;20794;-54
2022/10/19 04:57:41;;;;;;;32.57;12.13;;;15.90;99.90;;;;;;5090466;28;20382;-54
2022/10/19 05:00:08;;;;;;;38.33;12.27;;;15.90;99.90;;;;;;5089558;28;20409;-54
2022/10/19 05:02:33;;;;;;;34.50;12.98;;;15.90;99.90;;;;;;5089475;28;20401;-55
2022/10/19 05:04:59;;;;;;;32.83;12.53;;;15.90;99.90;;;;;;5087039;28;20907;-54
2022/10/19 05:07:24;;;;;;;38.17;12.38;;;15.90;99.90;;;;;;5076940;28;20411;-54
2022/10/19 05:09:50;;;;;;;35.10;10.85;;;15.80;99.90;;;;;;5078219;28;20880;-54
2022/10/19 05:12:15;;;;;;;35.93;11.67;;;15.70;99.90;;;;;;5092795;28;20477;-54
2022/10/19 05:14:41;;;;;;;31.30;11.67;;;15.60;99.90;;;;;;5104164;28;20389;-54
2022/10/19 05:17:07;;;;;;;29.90;11.05;;;15.60;99.90;;;;;;5088703;28;20428;-54
2022/10/19 05:19:32;;;;;;;27.05;11.60;;;15.60;99.90;;;;;;5089915;28;20384;-54
2022/10/19 05:21:58;;;;;;;28.67;11.40;;;15.50;99.90;;;;;;5089389;28;20378;-56
2022/10/19 05:24:23;;;;;;;50.13;12.33;;;15.50;99.90;;;;;;5089040;28;20426;-54
2022/10/19 05:26:49;;;;;;;39.15;10.77;;;15.40;99.90;;;;;;5089715;28;20481;-54
2022/10/19 05:29:14;;;;;;;35.47;11.80;;;15.30;99.90;;;;;;5088663;28;20762;-54
2022/10/19 05:31:40;;;;;;;32.17;11.60;;;15.30;99.90;;;;;;5089211;28;20389;-55
2022/10/19 05:34:06;;;;;;;29.85;10.48;;;15.40;99.90;;;;;;5089179;28;20461;-54
2022/10/19 05:36:37;;;;;;;26.75;10.68;;;15.20;99.90;;;;;;5089929;28;20414;-54
2022/10/19 05:39:06;;;;;;;30.05;10.52;;;15.10;99.90;;;;;;5088810;28;20407;-55
2022/10/19 05:41:32;;;;;;;23.15;10.15;;;15.10;99.90;;;;;;5089518;28;20874;-54
2022/10/19 05:43:59;;;;;;;23.92;11.00;;;15.00;99.90;;;;;;5093866;28;20413;-54
2022/10/19 05:46:27;;;;;;;27.15;11.68;;;14.90;99.90;;;;;;5093584;28;20371;-54
2022/10/19 05:48:54;;;;;;;26.83;11.20;;;15.00;99.90;;;;;;5093664;28;20474;-54
2022/10/19 05:51:21;;;;;;;27.67;11.40;;;15.00;99.90;;;;;;5092864;28;20439;-56
2022/10/19 05:53:47;;;;;;;25.45;11.48;;;15.10;99.90;;;;;;5093601;28;20386;-54
2022/10/19 05:56:22;;;;;;;25.08;10.75;;;15.20;99.90;;;;;;5092211;28;20394;-55
2022/10/19 05:58:51;;;;;;;27.15;11.95;;;15.30;99.90;;;;;;5092487;28;20401;-54
2022/10/19 06:01:19;;;;;;;24.25;11.02;;;15.40;99.90;;;;;;5092219;28;20401;-54
2022/10/19 06:03:46;;;;;;;24.52;11.60;;;15.40;99.90;;;;;;5089553;28;20400;-54
2022/10/19 06:06:11;;;;;;;27.00;11.90;;;15.40;99.90;;;;;;5085923;28;20786;-56
2022/10/19 06:08:38;;;;;;;25.35;11.50;;;15.40;99.90;;;;;;5093610;28;20436;-56
2022/10/19 06:11:17;;;;;;;26.20;11.20;;;15.50;99.90;;;;;;5092609;28;20467;-58
2022/10/19 06:13:44;;;;;;;29.83;11.82;;;15.50;99.90;;;;;;5093070;28;20390;-57
2022/10/19 06:16:12;;;;;;;23.05;10.20;;;15.50;99.90;;;;;;5092440;28;20382;-54
2022/10/19 06:18:38;;;;;;;22.52;10.60;;;15.50;99.90;;;;;;5092848;28;20519;-54
2022/10/19 06:21:07;;;;;;;22.33;10.43;;;15.50;99.90;;;;;;5092155;28;20443;-55
2022/10/19 06:23:33;;;;;;;23.80;9.25;;;15.40;99.90;;;;;;5093060;28;20465;-54
2022/10/19 06:26:01;;;;;;;22.90;10.17;;;15.40;99.90;;;;;;5092923;28;20410;-54
2022/10/19 06:28:27;;;;;;;21.40;10.27;;;15.50;99.90;;;;;;5092356;28;20406;-57
2022/10/19 06:30:52;;;;;;;21.80;10.37;;;15.50;99.90;;;;;;5092977;28;20743;-57
2022/10/19 06:33:18;;;;;;;23.17;10.13;;;15.50;99.90;;;;;;5091689;28;20410;-54
2022/10/19 06:35:43;;;;;;;23.20;10.80;;;15.50;99.90;;;;;;5092689;28;20465;-54
2022/10/19 06:38:09;;;;;;;20.13;10.10;;;15.60;99.90;;;;;;5092296;28;20374;-54
2022/10/19 06:40:35;;;;;;;18.87;9.67;;;15.50;99.90;;;;;;5092767;28;20453;-55
2022/10/19 06:43:01;;;;;;;22.85;9.60;;;15.50;99.90;;;;;;5092588;28;20469;-55
2022/10/19 06:45:26;;;;;;;18.87;9.40;;;15.50;99.90;;;;;;5092617;28;20517;-54
2022/10/19 06:47:52;;;;;;;22.02;10.55;;;15.40;99.90;;;;;;5092164;28;20402;-54
2022/10/19 06:50:19;;;;;;;22.17;10.23;;;15.40;99.90;;;;;;5091858;28;20386;-54
2022/10/19 06:52:45;;;;;;;20.30;9.73;;;15.30;99.90;;;;;;5092709;28;20777;-54
2022/10/19 06:55:11;;;;;;;19.30;9.27;;;15.30;99.90;;;;;;5090814;28;20378;-54
2022/10/19 06:57:36;;;;;;;17.00;8.98;;;15.50;99.90;;;;;;5092106;28;20472;-58
2022/10/19 07:00:04;;;;;;;18.52;9.20;;;15.30;99.90;;;;;;5092239;28;20400;-55
2022/10/19 07:02:29;;;;;;;15.65;7.88;;;15.50;99.90;;;;;;5091808;28;20390;-54
2022/10/19 07:04:55;;;;;;;15.57;7.30;;;15.50;99.90;;;;;;5092030;28;20379;-54
2022/10/19 07:07:20;;;;;;;17.27;8.80;;;15.50;99.90;;;;;;5091130;28;20431;-54
2022/10/19 07:09:47;;;;;;;16.83;7.82;;;15.50;99.90;;;;;;5091988;28;20397;-54
2022/10/19 07:12:13;;;;;;;16.02;8.02;;;15.60;99.90;;;;;;5091314;28;20417;-54
2022/10/19 07:14:39;;;;;;;16.90;8.90;;;15.70;96.20;;;;;;5091817;28;20436;-54
2022/10/19 07:17:07;;;;;;;17.45;8.50;;;;;;;;;;5091397;28;20387;-56
2022/10/19 07:19:34;;;;;;;13.55;6.30;;;;;;;;;;5091772;28;20381;-55
2022/10/19 07:22:00;;;;;;;11.20;5.68;;;;;;;;;;5091955;28;20473;-55
2022/10/19 07:24:26;;;;;;;11.93;5.77;;;;;;;;;;5091408;28;20378;-55
2022/10/19 07:26:52;;;;;;;10.60;5.30;;;;;;;;;;5092079;28;20786;-55
2022/10/19 07:29:18;;;;;;;10.43;5.43;;;;;;;;;;5090997;28;20398;-55
2022/10/19 07:31:44;;;;;;;10.80;5.50;;;;;;;;;;5091430;28;20378;-55
2022/10/19 07:34:12;;;;;;;12.20;5.95;;;24.80;99.90;;;;;;5091210;28;20488;-55
2022/10/19 07:36:38;;;;;;;11.30;6.10;;;24.70;99.90;;;;;;5091673;28;20839;-55
2022/10/19 07:39:05;;;;;;;11.05;5.55;;;24.90;99.90;;;;;;5090803;28;20390;-56
2022/10/19 07:41:33;;;;;;;11.55;6.50;;;25.10;99.90;;;;;;5091667;28;20382;-55
2022/10/19 07:44:00;;;;;;;14.05;7.10;;;25.30;99.90;;;;;;5091735;28;20417;-56
2022/10/19 07:46:28;;;;;;;12.15;6.88;;;24.60;99.90;;;;;;5090881;28;20473;-55
2022/10/19 07:48:54;;;;;;;12.57;6.47;;;23.60;99.90;;;;;;5091409;28;20435;-55
2022/10/19 07:51:21;;;;;;;13.18;6.80;;;23.00;99.90;;;;;;5090627;28;20708;-55
2022/10/19 07:53:47;;;;;;;14.32;7.15;;;22.70;99.90;;;;;;5091516;28;20401;-55
2022/10/19 07:56:21;;;;;;;15.73;7.63;;;22.40;99.90;;;;;;5090634;28;20475;-55
2022/10/19 07:58:48;;;;;;;12.65;6.85;;;20.60;99.90;;;;;;5091007;28;20381;-55
2022/10/19 08:01:16;;;;;;;12.68;6.65;;;21.40;99.90;;;;;;5090488;28;20382;-55
2022/10/19 08:03:42;;;;;;;14.30;7.30;;;21.60;99.90;;;;;;5091285;28;20520;-55
2022/10/19 08:06:11;;;;;;;12.40;5.72;;;21.70;99.90;;;;;;5090569;28;20431;-55
2022/10/19 08:08:37;;;;;;;13.18;6.93;;;21.70;1.00;;;;;;5090814;28;20459;-55
2022/10/19 08:11:29;;;;;;;14.60;6.80;;;21.60;99.90;;;;;;5090951;28;20862;-56
2022/10/19 08:13:57;;;;;;;18.00;7.55;;;22.00;99.90;;;;;;5081860;28;20449;-55
2022/10/19 08:16:27;;;;;;;11.80;6.60;;;22.40;99.90;;;;;;5090311;28;20366;-55
2022/10/19 08:18:59;;;;;;;13.10;7.40;;;23.00;99.90;;;;;;5090988;28;20378;-55
2022/10/19 08:21:26;;;;;;;13.63;7.10;;;22.90;99.90;;;;;;5090331;28;20393;-55
2022/10/19 08:23:52;;;;;;;14.07;7.87;;;22.50;99.90;;;;;;5090576;28;20860;-55
2022/10/19 08:26:17;;;;;;;15.38;6.97;;;21.90;99.90;;;;;;5090032;28;20432;-55
2022/10/19 08:28:43;;;;;;;15.98;8.20;;;21.20;99.90;;;;;;5090698;28;20744;-55
2022/10/19 08:31:17;;;;;;;14.63;7.07;;;20.70;99.90;;;;;;5089989;28;20412;-55
2022/10/19 08:33:43;;;;;;;15.70;7.32;;;20.30;1.00;;;;;;5090193;28;20452;-55
2022/10/19 08:36:10;;;;;;;14.68;7.93;;;19.80;1.00;;;;;;5089803;28;20720;-55
2022/10/19 08:38:36;;;;;;;14.93;7.60;;;19.30;1.00;;;;;;5090055;28;20424;-54
2022/10/19 08:41:24;;;;;;;16.15;8.25;;;19.10;96.00;;;;;;5090450;28;20386;-55
2022/10/19 08:44:21;;;;;;;18.25;7.88;;;19.10;99.90;;;;;;5076959;28;20473;-54
2022/10/19 08:47:17;;;;;;;14.80;7.07;;;19.10;99.90;;;;;;5090223;28;20851;-55
2022/10/19 08:49:45;;;;;;;14.38;7.38;;;18.80;1.00;;;;;;5090098;28;20393;-54
2022/10/19 08:52:17;;;;;;;14.82;7.80;;;18.60;99.90;;;;;;5089248;28;20381;-55
2022/10/19 08:54:56;;;;;;;13.10;6.82;;;18.40;1.00;;;;;;5090202;28;20386;-55
2022/10/19 08:57:53;;;;;;;14.37;7.90;;;18.20;99.90;;;;;;5089504;28;20370;-54
2022/10/19 09:00:18;;;;;;;14.85;7.97;;;18.00;1.00;;;;;;5089455;28;20412;-54
2022/10/19 09:03:18;;;;;;;15.25;7.40;;;17.90;99.90;;;;;;5089827;28;20437;-54
2022/10/19 09:06:21;;;;;;;18.30;9.77;;;17.90;99.90;;;;;;5090109;28;20394;-54
2022/10/19 09:08:51;;;;;;;14.47;6.90;;;18.10;1.00;;;;;;5086277;28;20422;-54
2022/10/19 09:11:26;;;;;;;14.57;7.80;;;18.20;1.00;;;;;;5089375;28;20852;-55
2022/10/19 09:14:28;;;;;;;14.33;7.37;;;18.20;1.00;;;;;;5089533;28;20721;-54
2022/10/19 09:17:00;;;;;;;15.80;7.90;;;18.20;99.90;;;;;;5044468;28;20451;-54
2022/10/19 09:19:29;;;;;;;15.77;8.63;;;18.20;99.90;;;;;;5089432;28;20558;-54
2022/10/19 09:22:06;;;;;;;20.85;8.30;;;18.30;99.90;;;;;;5089843;28;20874;-54
2022/10/19 09:25:01;;;;;;;13.32;6.75;;;18.50;80.80;;;;;;5089282;28;20732;-54
2022/10/19 09:27:36;;;;;;;15.88;7.07;;;18.20;99.90;;;;;;5088708;28;20954;-55
2022/10/19 09:30:22;;;;;;;16.67;7.82;;;18.40;99.90;;;;;;5089644;28;20734;-54
2022/10/19 09:32:54;;;;;;;16.15;7.50;;;18.50;99.90;;;;;;5088648;28;20468;-54
2022/10/19 09:35:43;;;;;;;15.33;6.83;;;18.60;1.00;;;;;;5089354;28;20386;-54
2022/10/19 09:38:13;;;;;;;14.32;6.43;;;18.60;1.00;;;;;;5088668;28;20414;-55
2022/10/19 09:40:38;;;;;;;15.65;5.82;;;18.30;1.00;;;;;;5089453;28;20412;-54
2022/10/19 09:43:19;;;;;;;15.30;5.90;;;18.30;1.00;;;;;;5089535;28;20772;-55
2022/10/19 09:46:01;;;;;;;14.25;6.55;;;18.10;45.60;;;;;;5089804;28;20374;-54
2022/10/19 09:48:47;;;;;;;15.05;6.78;;;17.90;99.90;;;;;;5088807;28;20440;-54
2022/10/19 09:51:14;;;;;;;12.40;5.97;;;17.80;1.00;;;;;;5089077;28;20406;-54
2022/10/19 09:53:51;;;;;;;12.00;5.70;;;17.70;1.00;;;;;;5089609;28;20393;-54
2022/10/19 09:56:20;;;;;;;10.85;4.72;;;17.60;1.00;;;;;;5088705;28;20850;-54
2022/10/19 09:58:56;;;;;;;10.07;5.10;;;17.40;1.00;;;;;;5089352;28;20386;-54
2022/10/19 10:01:37;;;;;;;10.17;4.40;;;17.40;99.90;;;;;;5088784;28;20390;-54
2022/10/19 10:04:14;;;;;;;11.50;5.30;;;17.40;1.00;;;;;;5089111;28;20443;-56
2022/10/19 10:06:41;;;;;;;9.23;4.50;;;17.60;99.90;;;;;;5089393;28;20449;-54
2022/10/19 10:09:20;;;;;;;9.10;4.20;;;17.60;1.00;;;;;;5088426;28;20528;-56
2022/10/19 10:11:48;;;;;;;8.60;3.88;;;17.80;99.90;;;;;;5089019;28;20382;-54
2022/10/19 10:14:25;;;;;;;8.15;3.38;;;17.90;99.90;;;;;;5088330;28;20798;-54
2022/10/19 10:17:05;;;;;;;8.00;3.30;;;18.00;99.90;;;;;;5089547;28;20374;-55
2022/10/19 10:19:32;;;;;;;7.35;3.20;;;18.20;99.90;;;;;;5089021;28;20378;-54
2022/10/19 10:21:59;;;;;;;8.55;3.13;;;18.20;1.00;;;;;;5089494;28;20389;-54
2022/10/19 10:24:27;;;;;;;7.80;3.40;;;18.10;1.00;;;;;;5088411;28;20378;-54
2022/10/19 10:27:02;;;;;;;8.48;3.47;;;18.10;1.00;;;;;;5089248;28;20435;-54
2022/10/19 10:29:33;;;;;;;7.30;2.70;;;17.90;1.00;;;;;;5090157;28;20960;-54
2022/10/19 10:32:12;;;;;;;6.72;2.60;;;17.80;1.00;;;;;;5092730;28;20401;-54
2022/10/19 10:34:42;;;;;;;7.07;3.00;;;17.70;99.90;;;;;;5092761;28;20386;-54
2022/10/19 10:37:20;;;;;;;9.30;2.90;;;17.70;99.90;;;;;;5092119;28;20374;-56
2022/10/19 10:39:53;;;;;;;7.25;3.10;;;17.70;99.90;;;;;;5093243;28;20370;-54
2022/10/19 10:42:27;;;;;;;7.10;3.00;;;17.70;99.90;;;;;;5092161;28;20400;-55
2022/10/19 10:44:55;;;;;;;8.00;2.70;;;17.70;99.90;;;;;;5092824;28;20378;-55
2022/10/19 10:47:21;;;;;;;7.78;2.70;;;17.60;99.90;;;;;;5091944;28;20382;-55
2022/10/19 10:50:05;;;;;;;6.80;2.90;;;17.70;1.00;;;;;;5092559;28;20370;-55
2022/10/19 10:52:31;;;;;;;9.23;2.80;;;17.90;99.90;;;;;;5092481;28;20373;-56
2022/10/19 10:55:09;;;;;;;8.05;3.45;;;18.30;99.90;;;;;;5092174;28;20473;-55
2022/10/19 10:57:40;;;;;;;8.02;2.90;;;18.60;1.00;;;;;;5092598;28;20406;-55
2022/10/19 11:00:11;;;;;;;8.15;3.10;;;18.90;99.90;;;;;;5091867;28;20482;-56
2022/10/19 11:02:42;;;;;;;8.20;3.60;;;19.10;1.00;;;;;;5092872;28;20394;-55
2022/10/19 11:05:25;;;;;;;7.80;3.50;;;19.00;1.00;;;;;;5091742;28;20406;-56
2022/10/19 11:08:26;;;;;;;9.90;4.40;;;18.90;1.00;;;;;;5092493;28;20722;-55
2022/10/19 11:11:00;;;;;;;10.65;3.72;;;18.80;1.00;;;;;;5035942;28;20393;-55
2022/10/19 11:14:00;;;;;;;7.25;3.17;;;18.70;1.00;;;;;;5091154;28;20947;-55
2022/10/19 11:16:40;;;;;;;7.88;2.90;;;18.80;1.00;;;;;;5088825;28;20390;-55
2022/10/19 11:19:26;;;;;;;8.17;2.70;;;18.90;1.00;;;;;;5087731;28;20398;-56
2022/10/19 11:21:54;;;;;;;10.52;3.28;;;19.00;1.00;;;;;;5086105;28;20767;-55
2022/10/19 11:24:34;;;;;;;10.75;2.80;;;19.10;1.00;;;;;;5079120;28;20392;-55
2022/10/19 11:27:27;;;;;;;7.22;2.63;;;19.40;1.00;;;;;;5092137;28;20382;-55
2022/10/19 11:30:01;;;;;;;7.70;2.72;;;19.50;99.90;;;;;;5091709;28;20378;-55
2022/10/19 11:32:51;;;;;;;9.70;3.10;;;19.30;99.90;;;;;;5085851;28;21031;-55
2022/10/19 11:35:58;;;;;;;7.20;2.80;;;19.30;99.90;;;;;;5081884;28;20900;-55
2022/10/19 11:38:32;;;;;;;7.10;2.75;;;19.00;99.90;;;;;;5042150;28;20436;-56
2022/10/19 11:41:09;;;;;;;7.60;2.80;;;18.90;99.90;;;;;;5089939;28;20834;-55
2022/10/19 11:44:04;;;;;;;9.65;2.70;;;18.70;99.90;;;;;;5090637;28;20782;-55
2022/10/19 11:46:48;;;;;;;7.10;2.40;;;18.60;99.90;;;;;;5090852;28;20365;-55
2022/10/19 11:49:28;;;;;;;8.48;3.20;;;18.90;1.00;;;;;;5082114;28;20914;-55
2022/10/19 11:52:12;;;;;;;7.70;3.60;;;19.40;99.90;;;;;;5071135;28;20391;-55
2022/10/19 11:55:10;;;;;;;7.22;2.90;;;19.60;99.90;;;;;;5070838;28;20405;-55
2022/10/19 11:57:44;;;;;;;7.63;3.05;;;19.90;99.90;;;;;;5066120;28;20485;-55
2022/10/19 12:00:18;;;;;;;7.20;2.50;;;20.30;99.90;;;;;;5070736;28;20454;-55
2022/10/19 12:03:03;;;;;;;7.80;3.20;;;20.60;72.80;;;;;;5075355;28;20410;-55
2022/10/19 12:06:03;;;;;;;7.90;3.40;;;20.40;1.00;;;;;;5074272;28;20598;-55
2022/10/19 12:08:39;;;;;;;7.43;2.53;;;19.90;1.00;;;;;;5075497;28;20501;-55
2022/10/19 12:11:26;;;;;;;8.80;3.07;;;19.80;1.00;;;;;;5083693;28;20447;-55
2022/10/19 12:14:07;;;;;;;7.50;2.90;;;19.90;1.00;;;;;;5085693;28;20486;-55
2022/10/19 12:16:41;;;;;;;7.80;2.90;;;20.20;1.00;;;;;;5081981;28;20894;-55
2022/10/19 12:19:15;;;;;;;8.00;2.80;;;20.50;1.00;;;;;;5082040;28;20486;-56
2022/10/19 12:21:42;;;;;;;7.50;2.70;;;20.60;1.00;;;;;;5089297;28;20376;-55
2022/10/19 12:24:21;;;;;;;7.47;2.83;;;20.70;1.00;;;;;;5086413;28;20409;-56
2022/10/19 12:26:49;;;;;;;8.45;3.10;;;20.70;1.00;;;;;;5088327;28;20382;-56
2022/10/19 12:29:28;;;;;;;9.43;2.80;;;20.90;1.00;;;;;;5083907;28;20447;-55
2022/10/19 12:31:55;;;;;;;8.10;3.10;;;21.00;1.00;;;;;;5089009;28;20759;-55
2022/10/19 12:34:34;;;;;;;7.38;3.00;;;21.10;1.00;;;;;;5080140;28;20407;-56
2022/10/19 12:37:31;;;;;;;8.13;3.50;;;21.00;1.00;;;;;;5090449;28;20374;-55
2022/10/19 12:40:07;;;;;;;8.20;3.10;;;21.10;1.00;;;;;;5085859;28;20399;-55
2022/10/19 12:42:35;;;;;;;7.30;2.70;;;21.50;1.00;;;;;;5082052;28;20405;-56
2022/10/19 12:45:04;;;;;;;8.05;2.70;;;21.50;1.00;;;;;;5088528;28;20467;-56
2022/10/19 12:47:31;;;;;;;7.60;2.50;;;21.40;1.00;;;;;;5087223;28;21311;-56
2022/10/19 12:49:57;;;;;;;7.50;2.90;;;21.20;1.00;;;;;;5083419;28;20477;-55
2022/10/19 12:52:51;;;;;;;7.53;2.58;;;21.30;1.00;;;;;;5081216;28;20396;-56
2022/10/19 12:55:16;;;;;;;7.97;2.40;;;21.30;1.00;;;;;;5085792;28;20481;-56
2022/10/19 12:57:47;;;;;;;8.65;2.30;;;21.30;1.00;;;;;;5072948;28;20466;-55
2022/10/19 13:00:29;;;;;;;9.50;3.00;;;21.40;1.00;;;;;;5068945;28;20433;-55